Time;durP1;ratioP1;P1;durP2;ratioP2;P2;SDS_P1;SDS_P2;PMS_P1;PMS_P2;Temp;Humidity;BMP_temperature;BMP_pressure;BME280_temperature;BME280_humidity;BME280_pressure;Samples;Min_cycle;Max_cycle;Signal;HPM_P1;HPM_P2
2023/08/16 00:02:04;;;;;;;4.60;2.40;;;;;;;-145.14;100.00;70583.66;4980728;28;20252;-71
2023/08/16 00:04:29;;;;;;;6.10;2.20;;;;;;;-145.14;100.00;70583.66;4978447;28;20204;-71
2023/08/16 00:06:55;;;;;;;5.20;2.27;;;;;;;-145.14;100.00;70583.66;4977293;28;20245;-71
2023/08/16 00:09:20;;;;;;;4.70;2.23;;;;;;;-145.14;100.00;70583.66;4979485;28;20239;-71
2023/08/16 00:11:46;;;;;;;4.30;2.60;;;;;;;-145.14;100.00;70583.66;4975612;28;20297;-71
2023/08/16 00:14:12;;;;;;;3.50;2.13;;;;;;;-145.14;100.00;70583.66;4978314;28;20197;-71
2023/08/16 00:16:37;;;;;;;4.77;2.27;;;;;;;-145.14;100.00;70583.66;4979786;28;20190;-71
2023/08/16 00:19:03;;;;;;;4.87;2.67;;;;;;;-145.14;100.00;70583.66;4979464;28;20191;-71
2023/08/16 00:21:28;;;;;;;3.63;2.40;;;;;;;-145.14;100.00;70583.66;4978848;28;20835;-71
2023/08/16 00:23:54;;;;;;;6.60;2.23;;;;;;;-145.14;100.00;70583.66;4983835;28;20185;-72
2023/08/16 00:26:20;;;;;;;6.90;2.47;;;;;;;-145.14;100.00;70583.66;4985249;28;20185;-72
2023/08/16 00:28:47;;;;;;;4.20;2.30;;;;;;;-145.14;100.00;70583.66;4982120;28;20324;-72
2023/08/16 00:31:13;;;;;;;6.37;2.47;;;;;;;-145.14;100.00;70583.66;4982525;28;20449;-71
2023/08/16 00:33:38;;;;;;;6.57;3.10;;;;;;;-145.14;100.00;70583.66;4985462;28;20433;-71
2023/08/16 00:36:04;;;;;;;4.90;2.60;;;;;;;-145.14;100.00;70583.66;4979944;28;20456;-71
2023/08/16 00:38:30;;;;;;;5.00;2.63;;;;;;;-145.14;100.00;70583.66;4994258;28;20202;-71
2023/08/16 00:40:57;;;;;;;7.73;3.17;;;;;;;-145.14;100.00;70583.66;4977572;28;20178;-71
2023/08/16 00:43:22;;;;;;;4.80;2.97;;;;;;;-145.14;100.00;70583.66;4995002;28;20428;-71
2023/08/16 00:45:48;;;;;;;5.40;3.37;;;;;;;-145.14;100.00;70583.66;4975647;28;20448;-71
2023/08/16 00:48:14;;;;;;;5.10;3.50;;;;;;;-145.14;100.00;70583.66;4976970;28;20626;-71
2023/08/16 00:50:40;;;;;;;6.00;3.60;;;;;;;-145.14;100.00;70583.66;4979748;28;20488;-71
2023/08/16 00:53:06;;;;;;;7.57;3.30;;;;;;;-145.14;100.00;70583.66;4978465;28;20538;-72
2023/08/16 00:55:33;;;;;;;4.80;2.87;;;;;;;-145.14;100.00;70583.66;4976611;28;20252;-72
2023/08/16 00:57:59;;;;;;;8.43;3.80;;;;;;;-145.14;100.00;70583.66;4977534;28;20459;-72
2023/08/16 01:00:25;;;;;;;6.30;3.27;;;;;;;-145.14;100.00;70583.66;4976178;28;20594;-72
2023/08/16 01:02:50;;;;;;;5.30;3.13;;;;;;;-145.14;100.00;70583.66;4989462;28;21262;-71
2023/08/16 01:05:17;;;;;;;5.50;3.13;;;;;;;-145.14;100.00;70583.66;4977052;28;20798;-71
2023/08/16 01:07:42;;;;;;;4.43;2.97;;;;;;;-145.14;100.00;70583.66;4985877;28;20204;-72
2023/08/16 01:10:08;;;;;;;6.10;3.87;;;;;;;-145.14;100.00;70583.66;4987095;28;20734;-72
2023/08/16 01:12:49;;;;;;;7.80;3.53;;;;;;;-145.14;100.00;70583.66;4987217;28;20349;-72
2023/08/16 01:15:30;;;;;;;6.23;3.80;;;;;;;-145.14;100.00;70583.66;4992525;28;20444;-71
2023/08/16 01:17:58;;;;;;;6.63;3.63;;;;;;;-145.14;100.00;70583.66;4979434;28;20456;-72
2023/08/16 01:20:26;;;;;;;4.97;3.73;;;;;;;-145.14;100.00;70583.66;4974110;28;21133;-72
2023/08/16 01:22:57;;;;;;;5.87;3.80;;;;;;;-145.14;100.00;70583.66;4974571;28;20473;-72
2023/08/16 01:25:48;;;;;;;7.23;3.63;;;;;;;-145.14;100.00;70583.66;4972740;28;21000;-72
2023/08/16 01:28:14;;;;;;;6.57;3.73;;;;;;;-145.14;100.00;70583.66;4978365;28;20437;-72
2023/08/16 01:30:41;;;;;;;4.53;3.57;;;;;;;-145.14;100.00;70583.66;4974489;28;20471;-72
2023/08/16 01:33:08;;;;;;;7.80;4.70;;;;;;;-145.14;100.00;70583.66;4977188;28;20569;-72
2023/08/16 01:35:34;;;;;;;6.20;3.73;;;;;;;-145.14;100.00;70583.66;4995029;28;20437;-72
2023/08/16 01:38:01;;;;;;;5.43;4.13;;;;;;;-145.14;100.00;70583.66;4980489;28;20433;-72
2023/08/16 01:40:30;;;;;;;6.83;4.43;;;;;;;-145.14;100.00;70583.66;4975781;28;20468;-72
2023/08/16 01:42:56;;;;;;;6.27;3.83;;;;;;;-145.14;100.00;70583.66;4975523;28;20467;-72
2023/08/16 01:45:23;;;;;;;5.50;4.00;;;;;;;-145.14;100.00;70583.66;4971820;28;20432;-72
2023/08/16 01:47:49;;;;;;;6.33;4.23;;;;;;;-145.14;100.00;70583.66;4976372;28;20745;-72
2023/08/16 01:50:16;;;;;;;6.50;4.57;;;;;;;-145.14;100.00;70583.66;4975745;28;20476;-72
2023/08/16 01:52:41;;;;;;;7.27;4.50;;;;;;;-145.14;100.00;70583.66;4972535;28;20465;-72
2023/08/16 01:55:07;;;;;;;9.67;4.43;;;;;;;-145.14;100.00;70583.66;4974122;28;20456;-71
2023/08/16 01:57:33;;;;;;;7.17;4.27;;;;;;;-145.14;100.00;70583.66;4974946;28;20274;-72
2023/08/16 01:59:58;;;;;;;8.53;4.63;;;;;;;-145.14;100.00;70583.66;4977902;28;21077;-72
2023/08/16 02:02:24;;;;;;;6.80;3.80;;;;;;;-145.14;100.00;70583.66;4974518;28;20308;-72
2023/08/16 02:04:50;;;;;;;6.37;4.23;;;;;;;-145.14;100.00;70583.66;4983184;28;20746;-72
2023/08/16 02:07:16;;;;;;;6.60;4.40;;;;;;;-145.14;100.00;70583.66;4975770;28;20440;-72
2023/08/16 02:09:41;;;;;;;12.43;5.23;;;;;;;-145.14;100.00;70583.66;4972283;28;20698;-71
2023/08/16 02:12:07;;;;;;;9.00;4.27;;;;;;;-145.14;100.00;70583.66;4972413;28;20669;-71
2023/08/16 02:14:33;;;;;;;7.23;4.20;;;;;;;-145.14;100.00;70583.66;4978277;28;20189;-72
2023/08/16 02:16:58;;;;;;;9.03;3.90;;;;;;;-145.14;100.00;70583.66;4973165;28;20441;-72
2023/08/16 02:19:23;;;;;;;5.63;4.07;;;;;;;-145.14;100.00;70583.66;4978501;28;20244;-72
2023/08/16 02:21:49;;;;;;;5.40;4.23;;;;;;;-145.14;100.00;70583.66;4973874;28;20724;-72
2023/08/16 02:24:14;;;;;;;5.60;3.83;;;;;;;-145.14;100.00;70583.66;4977795;28;20200;-72
2023/08/16 02:26:40;;;;;;;9.20;4.43;;;;;;;-145.14;100.00;70583.66;4975893;28;20193;-72
2023/08/16 02:29:05;;;;;;;7.13;4.13;;;;;;;-145.14;100.00;70583.66;4981022;28;20204;-72
2023/08/16 02:31:31;;;;;;;7.03;3.97;;;;;;;-145.14;100.00;70583.66;4980957;28;20214;-71
2023/08/16 02:33:57;;;;;;;6.30;4.37;;;;;;;-145.14;100.00;70583.66;4985781;28;20190;-72
2023/08/16 02:36:23;;;;;;;6.10;4.20;;;;;;;-145.14;100.00;70583.66;4982749;28;20233;-72
2023/08/16 02:38:48;;;;;;;7.53;4.23;;;;;;;-145.14;100.00;70583.66;4983354;28;20437;-72
2023/08/16 02:41:14;;;;;;;6.60;3.53;;;;;;;-145.14;100.00;70583.66;4983265;28;20467;-73
2023/08/16 02:43:39;;;;;;;4.57;3.60;;;;;;;-145.14;100.00;70583.66;4982307;28;20181;-72
2023/08/16 02:46:05;;;;;;;5.70;3.60;;;;;;;-145.14;100.00;70583.66;4984795;28;20221;-72
2023/08/16 02:48:30;;;;;;;6.77;4.57;;;;;;;-145.14;100.00;70583.66;4991783;28;20190;-72
2023/08/16 02:50:55;;;;;;;8.10;3.90;;;;;;;-145.14;100.00;70583.66;4984216;28;20229;-72
2023/08/16 02:53:21;;;;;;;8.03;3.87;;;;;;;-145.14;100.00;70583.66;4982305;28;20189;-72
2023/08/16 02:55:46;;;;;;;5.50;3.93;;;;;;;-145.14;100.00;70583.66;4979116;28;20190;-72
2023/08/16 02:58:12;;;;;;;8.53;3.87;;;;;;;-145.14;100.00;70583.66;4979146;28;20605;-72
2023/08/16 03:00:38;;;;;;;6.83;3.80;;;;;;;-145.14;100.00;70583.66;4976202;28;20178;-72
2023/08/16 03:03:04;;;;;;;5.20;3.90;;;;;;;-145.14;100.00;70583.66;4980618;28;20217;-72
2023/08/16 03:05:29;;;;;;;6.33;4.20;;;;;;;-145.14;100.00;70583.66;4980253;28;20449;-72
2023/08/16 03:07:55;;;;;;;5.70;4.20;;;;;;;-145.14;100.00;70583.66;4977413;28;20186;-72
2023/08/16 03:10:20;;;;;;;5.77;3.70;;;;;;;-145.14;100.00;70583.66;4975833;28;20280;-72
2023/08/16 03:12:46;;;;;;;4.90;3.63;;;;;;;-145.14;100.00;70583.66;4979300;28;20220;-72
2023/08/16 03:15:11;;;;;;;5.27;3.50;;;;;;;-145.14;100.00;70583.66;4976892;28;20193;-72
2023/08/16 03:17:37;;;;;;;6.63;4.37;;;;;;;-145.14;100.00;70583.66;4982641;28;20192;-72
2023/08/16 03:20:03;;;;;;;6.03;3.80;;;;;;;-145.14;100.00;70583.66;4978918;28;20654;-71
2023/08/16 03:22:29;;;;;;;6.83;4.30;;;;;;;-145.14;100.00;70583.66;4982207;28;20357;-72
2023/08/16 03:24:54;;;;;;;4.70;3.60;;;;;;;-145.14;100.00;70583.66;4982491;28;20595;-71
2023/08/16 03:27:19;;;;;;;5.77;4.07;;;;;;;-145.14;100.00;70583.66;4980891;28;20669;-72
2023/08/16 03:29:45;;;;;;;5.30;3.70;;;;;;;-145.14;100.00;70583.66;4981436;28;20724;-71
2023/08/16 03:32:10;;;;;;;7.47;4.13;;;;;;;-145.14;100.00;70583.66;4978136;28;20221;-72
2023/08/16 03:34:36;;;;;;;6.93;4.17;;;;;;;-145.14;100.00;70583.66;4981257;28;20675;-72
2023/08/16 03:37:01;;;;;;;7.23;4.50;;;;;;;-145.14;100.00;70583.66;4977682;28;20189;-72
2023/08/16 03:39:27;;;;;;;8.43;4.20;;;;;;;-145.14;100.00;70583.66;4975715;28;20185;-71
2023/08/16 03:41:52;;;;;;;8.20;4.37;;;;;;;-145.14;100.00;70583.66;4976817;28;20837;-71
2023/08/16 03:44:18;;;;;;;8.03;4.47;;;;;;;-145.14;100.00;70583.66;4978473;28;20190;-72
2023/08/16 03:46:43;;;;;;;7.00;3.63;;;;;;;-145.14;100.00;70583.66;4977346;28;20757;-72
2023/08/16 03:49:09;;;;;;;5.43;3.77;;;;;;;-145.14;100.00;70583.66;4977382;28;20280;-72
2023/08/16 03:51:35;;;;;;;5.20;3.47;;;;;;;-145.14;100.00;70583.66;4978008;28;20784;-72
2023/08/16 03:54:00;;;;;;;5.97;3.97;;;;;;;-145.14;100.00;70583.66;4977613;28;20204;-72
2023/08/16 03:56:27;;;;;;;5.17;3.80;;;;;;;-145.14;100.00;70583.66;4977029;28;20448;-72
2023/08/16 03:58:52;;;;;;;5.20;3.47;;;;;;;-145.14;100.00;70583.66;4977359;28;20304;-72
2023/08/16 04:01:18;;;;;;;7.00;4.23;;;;;;;-145.14;100.00;70583.66;4975282;28;20956;-71
2023/08/16 04:03:43;;;;;;;8.17;4.57;;;;;;;-145.14;100.00;70583.66;4977952;28;20611;-71
2023/08/16 04:06:12;;;;;;;4.80;3.57;;;;;;;-145.14;100.00;70583.66;4979938;28;20201;-72
2023/08/16 04:08:38;;;;;;;6.00;3.73;;;;;;;-145.14;100.00;70583.66;4993166;28;20193;-72
2023/08/16 04:11:04;;;;;;;5.30;3.37;;;;;;;-145.14;100.00;70583.66;4978943;28;20468;-72
2023/08/16 04:13:30;;;;;;;5.40;3.63;;;;;;;-145.14;100.00;70583.66;4971604;28;20448;-72
2023/08/16 04:15:55;;;;;;;5.13;3.37;;;;;;;-145.14;100.00;70583.66;4976929;28;20462;-71
2023/08/16 04:18:21;;;;;;;4.90;3.50;;;;;;;-145.14;100.00;70583.66;4983017;28;20209;-72
2023/08/16 04:20:47;;;;;;;5.83;3.80;;;;;;;-145.14;100.00;70583.66;4984057;28;20247;-71
2023/08/16 04:23:13;;;;;;;6.37;4.47;;;;;;;-145.14;100.00;70583.66;4979223;28;20209;-72
2023/08/16 04:25:38;;;;;;;4.57;3.60;;;;;;;-145.14;100.00;70583.66;4983321;28;20447;-72
2023/08/16 04:28:04;;;;;;;5.27;3.77;;;;;;;-145.14;100.00;70583.66;4982907;28;20193;-72
2023/08/16 04:30:29;;;;;;;7.57;3.60;;;;;;;-145.14;100.00;70583.66;4980181;28;20244;-72
2023/08/16 04:32:55;;;;;;;5.67;3.57;;;;;;;-145.14;100.00;70583.66;4982551;28;20915;-71
2023/08/16 04:35:20;;;;;;;10.60;4.80;;;;;;;-145.14;100.00;70583.66;4984820;28;20653;-71
2023/08/16 04:37:46;;;;;;;5.87;4.20;;;;;;;-145.14;100.00;70583.66;4982123;28;20760;-72
2023/08/16 04:40:12;;;;;;;6.93;3.87;;;;;;;-145.14;100.00;70583.66;4984424;28;20181;-71
2023/08/16 04:42:37;;;;;;;7.53;3.83;;;;;;;-145.14;100.00;70583.66;4983837;28;20238;-72
2023/08/16 04:45:03;;;;;;;7.15;4.15;;;;;;;-145.14;100.00;70583.66;4985184;28;20475;-72
2023/08/16 04:47:29;;;;;;;6.90;4.90;;;;;;;-145.14;100.00;70583.66;4979238;28;20212;-72
2023/08/16 04:49:55;;;;;;;6.30;3.90;;;;;;;-145.14;100.00;70583.66;4979773;28;20549;-72
2023/08/16 04:52:21;;;;;;;6.50;4.37;;;;;;;-145.14;100.00;70583.66;4993377;28;21880;-72
2023/08/16 04:54:46;;;;;;;7.20;4.63;;;;;;;-145.14;100.00;70583.66;4983708;28;20360;-72
2023/08/16 04:57:11;;;;;;;5.20;4.00;;;;;;;-145.14;100.00;70583.66;4984006;28;20185;-72
2023/08/16 04:59:37;;;;;;;7.50;4.27;;;;;;;-145.14;100.00;70583.66;4997615;28;20190;-71
2023/08/16 05:02:03;;;;;;;4.43;3.30;;;;;;;-145.14;100.00;70583.66;4978879;28;20273;-71
2023/08/16 05:04:28;;;;;;;6.23;4.53;;;;;;;-145.14;100.00;70583.66;4983672;28;20204;-71
2023/08/16 05:06:54;;;;;;;6.97;4.70;;;;;;;-145.14;100.00;70583.66;4983984;28;20449;-71
2023/08/16 05:09:19;;;;;;;6.27;4.20;;;;;;;-145.14;100.00;70583.66;4981657;28;20210;-71
2023/08/16 05:11:45;;;;;;;6.60;4.30;;;;;;;-145.14;100.00;70583.66;4976520;28;20213;-72
2023/08/16 05:14:11;;;;;;;5.10;4.00;;;;;;;-145.14;100.00;70583.66;4974453;28;20661;-71
2023/08/16 05:16:36;;;;;;;5.53;3.80;;;;;;;-145.14;100.00;70583.66;4977644;28;20185;-71
2023/08/16 05:19:01;;;;;;;5.37;4.13;;;;;;;-145.14;100.00;70583.66;4981347;28;20274;-71
2023/08/16 05:21:27;;;;;;;6.30;3.77;;;;;;;-145.14;100.00;70583.66;4979344;28;20285;-71
2023/08/16 05:23:52;;;;;;;7.27;4.30;;;;;;;-145.14;100.00;70583.66;4980356;28;20624;-72
2023/08/16 05:26:18;;;;;;;6.80;4.70;;;;;;;-145.14;100.00;70583.66;4980131;28;20242;-71
2023/08/16 05:28:43;;;;;;;7.60;4.83;;;;;;;-145.14;100.00;70583.66;4979385;28;20929;-71
2023/08/16 05:31:13;;;;;;;8.37;5.20;;;;;;;-145.14;100.00;70583.66;4980580;28;20198;-71
2023/08/16 05:33:39;;;;;;;9.53;4.70;;;;;;;-145.14;100.00;70583.66;4980248;28;20284;-71
2023/08/16 05:36:05;;;;;;;6.30;4.13;;;;;;;-145.14;100.00;70583.66;4994114;28;20450;-72
2023/08/16 05:38:31;;;;;;;7.50;5.00;;;;;;;-145.14;100.00;70583.66;4982075;28;20453;-72
2023/08/16 05:40:57;;;;;;;6.40;4.50;;;;;;;-145.14;100.00;70583.66;4980049;28;20441;-72
2023/08/16 05:43:23;;;;;;;5.83;3.80;;;;;;;-145.14;100.00;70583.66;4980945;28;20937;-72
2023/08/16 05:45:50;;;;;;;5.70;4.40;;;;;;;-145.14;100.00;70583.66;4987113;28;20455;-72
2023/08/16 05:48:15;;;;;;;7.17;4.47;;;;;;;-145.14;100.00;70583.66;4981177;28;20202;-71
2023/08/16 05:50:41;;;;;;;6.33;4.30;;;;;;;-145.14;100.00;70583.66;4981455;28;21058;-71
2023/08/16 05:53:07;;;;;;;8.43;4.90;;;;;;;-145.14;100.00;70583.66;4989088;28;20627;-72
2023/08/16 05:55:33;;;;;;;6.70;5.00;;;;;;;-145.14;100.00;70583.66;4979935;28;20206;-72
2023/08/16 05:57:58;;;;;;;6.90;4.37;;;;;;;-145.14;100.00;70583.66;4976888;28;20444;-72
2023/08/16 06:00:24;;;;;;;5.50;3.77;;;;;;;-145.14;100.00;70583.66;4980819;28;20181;-72
2023/08/16 06:02:49;;;;;;;6.33;4.33;;;;;;;-145.14;100.00;70583.66;4978125;28;20690;-73
2023/08/16 06:05:15;;;;;;;4.60;3.90;;;;;;;-145.14;100.00;70583.66;4983221;28;20193;-72
2023/08/16 06:07:40;;;;;;;9.33;4.60;;;;;;;-145.14;100.00;70583.66;4986064;28;20201;-72
2023/08/16 06:10:06;;;;;;;5.47;4.20;;;;;;;-145.14;100.00;70583.66;5000951;28;20242;-72
2023/08/16 06:12:32;;;;;;;6.40;4.30;;;;;;;-145.14;100.00;70583.66;4984891;28;20221;-72
2023/08/16 06:14:58;;;;;;;5.43;4.00;;;;;;;-145.14;100.00;70583.66;4987257;28;20302;-72
2023/08/16 06:17:24;;;;;;;6.50;3.70;;;;;;;-145.14;100.00;70583.66;4988667;28;20280;-72
2023/08/16 06:19:49;;;;;;;6.77;3.90;;;;;;;-145.14;100.00;70583.66;4983453;28;20267;-72
2023/08/16 06:22:15;;;;;;;5.80;3.45;;;;;;;-145.14;100.00;70583.66;4986501;28;20205;-72
2023/08/16 06:24:41;;;;;;;7.20;3.80;;;;;;;-145.14;100.00;70583.66;4985735;28;20189;-72
2023/08/16 06:27:08;;;;;;;7.40;3.30;;;;;;;-145.14;100.00;70583.66;4999929;28;20309;-72
2023/08/16 06:29:35;;;;;;;5.35;2.90;;;;;;;-145.14;100.00;70583.66;4986604;28;20576;-72
2023/08/16 06:32:00;;;;;;;7.60;3.23;;;;;;;-145.14;100.00;70583.66;4991478;28;20826;-72
2023/08/16 06:34:26;;;;;;;6.70;2.83;;;;;;;-145.14;100.00;70583.66;4983974;28;20456;-72
2023/08/16 06:36:52;;;;;;;6.03;2.60;;;;;;;-145.14;100.00;70583.66;4985127;28;20667;-72
2023/08/16 06:39:18;;;;;;;7.07;1.80;;;;;;;-145.14;100.00;70583.66;4986639;28;21131;-72
2023/08/16 06:41:44;;;;;;;4.87;1.37;;;;;;;-145.14;100.00;70583.66;4983522;28;20483;-72
2023/08/16 06:44:10;;;;;;;5.60;2.27;;;;;;;-145.14;100.00;70583.66;4988695;28;20475;-72
2023/08/16 06:46:35;;;;;;;2.70;1.20;;;;;;;-145.14;100.00;70583.66;4986194;28;20194;-72
2023/08/16 06:49:01;;;;;;;3.17;1.50;;;;;;;-145.14;100.00;70583.66;4986468;28;20642;-72
2023/08/16 06:51:26;;;;;;;2.83;1.40;;;;;;;-145.14;100.00;70583.66;4985021;28;20233;-72
2023/08/16 06:53:52;;;;;;;3.30;1.30;;;;;;;-145.14;100.00;70583.66;4986309;28;20680;-72
2023/08/16 06:56:17;;;;;;;3.23;1.40;;;;;;;-145.14;100.00;70583.66;4987135;28;20192;-72
2023/08/16 06:58:43;;;;;;;2.80;1.20;;;;;;;-145.14;100.00;70583.66;4984916;28;20222;-72
2023/08/16 07:01:09;;;;;;;4.37;1.30;;;;;;;-145.14;100.00;70583.66;4986064;28;20190;-72
2023/08/16 07:03:35;;;;;;;3.17;1.23;;;;;;;-145.14;100.00;70583.66;4986210;28;20189;-72
2023/08/16 07:06:01;;;;;;;4.10;1.20;;;;;;;-145.14;100.00;70583.66;4986742;28;20553;-72
2023/08/16 07:08:26;;;;;;;3.80;1.00;;;;;;;-145.14;100.00;70583.66;4983975;28;20540;-72
2023/08/16 07:10:54;;;;;;;2.53;0.97;;;;;;;-145.14;100.00;70583.66;4985908;28;20213;-72
2023/08/16 07:13:19;;;;;;;2.90;1.20;;;;;;;-145.14;100.00;70583.66;4987605;28;20214;-72
2023/08/16 07:15:45;;;;;;;2.53;0.80;;;;;;;-145.14;100.00;70583.66;4986777;28;20538;-72
2023/08/16 07:18:10;;;;;;;2.53;1.00;;;;;;;-145.14;100.00;70583.66;4999713;28;20220;-72
2023/08/16 07:20:36;;;;;;;4.60;1.00;;;;;;;-145.14;100.00;70583.66;4996124;28;20193;-72
2023/08/16 07:23:02;;;;;;;3.03;0.90;;;;;;;-145.14;100.00;70583.66;4993130;28;20221;-72
2023/08/16 07:25:28;;;;;;;3.00;1.13;;;;;;;-145.14;100.00;70583.66;4977268;28;20196;-72
2023/08/16 07:27:54;;;;;;;4.77;1.43;;;;;;;-145.14;100.00;70583.66;4980339;28;20453;-71
2023/08/16 07:30:19;;;;;;;3.80;1.03;;;;;;;-145.14;100.00;70583.66;4979453;28;20225;-71
2023/08/16 07:32:44;;;;;;;3.47;1.10;;;;;;;-145.14;100.00;70583.66;4978717;28;20201;-72
2023/08/16 07:35:10;;;;;;;5.13;1.00;;;;;;;-145.14;100.00;70583.66;4982158;28;20658;-72
2023/08/16 07:37:37;;;;;;;3.83;0.90;;;;;;;-145.14;100.00;70583.66;4979544;28;20194;-72
2023/08/16 07:40:04;;;;;;;2.63;0.80;;;;;;;-145.14;100.00;70583.66;4983772;28;20182;-73
2023/08/16 07:42:29;;;;;;;2.90;1.00;;;;;;;-145.14;100.00;70583.66;4993514;28;20456;-72
2023/08/16 07:44:57;;;;;;;2.33;1.00;;;;;;;-145.14;100.00;70583.66;4981687;28;20829;-72
2023/08/16 07:47:23;;;;;;;2.70;1.17;;;;;;;-145.14;100.00;70583.66;4975528;28;20189;-71
2023/08/16 07:49:48;;;;;;;3.43;1.00;;;;;;;-145.14;100.00;70583.66;4982718;28;20520;-72
2023/08/16 07:52:14;;;;;;;2.83;1.00;;;;;;;-145.14;100.00;70583.66;4988409;28;20903;-72
2023/08/16 07:54:39;;;;;;;4.87;1.10;;;;;;;-145.14;100.00;70583.66;4983021;28;21124;-72
2023/08/16 07:57:05;;;;;;;3.63;1.20;;;;;;;-145.14;100.00;70583.66;4981926;28;20197;-72
2023/08/16 07:59:31;;;;;;;3.37;1.00;;;;;;;-145.14;100.00;70583.66;4980781;28;20195;-72
2023/08/16 08:01:56;;;;;;;4.43;1.20;;;;;;;-145.14;100.00;70583.66;4993015;28;20694;-72
2023/08/16 08:04:22;;;;;;;2.10;0.80;;;;;;;-145.14;100.00;70583.66;4981068;28;20460;-72
2023/08/16 08:06:48;;;;;;;2.70;0.70;;;;;;;-145.14;100.00;70583.66;4979595;28;20225;-72
2023/08/16 08:09:13;;;;;;;2.27;0.90;;;;;;;-145.14;100.00;70583.66;4984177;28;20276;-72
2023/08/16 08:11:39;;;;;;;3.03;0.90;;;;;;;-145.14;100.00;70583.66;4984329;28;20977;-71
2023/08/16 08:14:05;;;;;;;5.67;1.87;;;;;;;-145.14;100.00;70583.66;4982804;28;20186;-72
2023/08/16 08:16:31;;;;;;;3.13;0.97;;;;;;;-145.14;100.00;70583.66;4978938;28;20253;-71
2023/08/16 08:18:57;;;;;;;2.20;0.90;;;;;;;-145.14;100.00;70583.66;4980646;28;20548;-72
2023/08/16 08:21:22;;;;;;;2.97;1.00;;;;;;;-145.14;100.00;70583.66;4981801;28;20460;-72
2023/08/16 08:23:48;;;;;;;5.60;1.57;;;;;;;-145.14;100.00;70583.66;4983027;28;20650;-72
2023/08/16 08:26:13;;;;;;;2.67;1.00;;;;;;;-145.14;100.00;70583.66;4986031;28;20189;-72
2023/08/16 08:28:39;;;;;;;2.77;1.10;;;;;;;-145.14;100.00;70583.66;4982952;28;20190;-72
2023/08/16 08:31:04;;;;;;;2.80;0.90;;;;;;;-145.14;100.00;70583.66;4980540;28;20202;-72
2023/08/16 08:33:30;;;;;;;3.20;1.00;;;;;;;-145.14;100.00;70583.66;4979504;28;20779;-72
2023/08/16 08:35:59;;;;;;;3.47;1.00;;;;;;;-145.14;100.00;70583.66;4981557;28;20277;-72
2023/08/16 08:38:24;;;;;;;2.40;0.83;;;;;;;-145.14;100.00;70583.66;4983643;28;20459;-72
2023/08/16 08:40:57;;;;;;;3.57;0.80;;;;;;;-145.14;100.00;70583.66;4979518;28;20921;-72
2023/08/16 08:43:28;;;;;;;3.30;1.00;;;;;;;-145.14;100.00;70583.66;4980385;28;20186;-72
2023/08/16 08:46:00;;;;;;;2.07;0.90;;;;;;;-145.14;100.00;70583.66;4997201;28;20472;-72
2023/08/16 08:48:29;;;;;;;3.10;0.87;;;;;;;-145.14;100.00;70583.66;4981269;28;20468;-72
2023/08/16 08:50:56;;;;;;;4.53;1.40;;;;;;;-145.14;100.00;70583.66;4980056;28;20472;-72
2023/08/16 08:53:23;;;;;;;4.33;1.20;;;;;;;-145.14;100.00;70583.66;4980641;28;20440;-72
2023/08/16 08:55:52;;;;;;;2.83;1.00;;;;;;;-145.14;100.00;70583.66;4978796;28;20955;-72
2023/08/16 08:58:22;;;;;;;3.27;0.90;;;;;;;-145.14;100.00;70583.66;4978789;28;20465;-72
2023/08/16 09:00:49;;;;;;;5.15;1.10;;;;;;;-145.14;100.00;70583.66;4981930;28;20441;-71
2023/08/16 09:03:17;;;;;;;2.73;0.77;;;;;;;-145.14;100.00;70583.66;4978838;28;20468;-72
2023/08/16 09:05:50;;;;;;;3.05;0.90;;;;;;;-145.14;100.00;70583.66;4979920;28;20441;-72
2023/08/16 09:08:16;;;;;;;2.20;0.90;;;;;;;-145.14;100.00;70583.66;4979811;28;20441;-71
2023/08/16 09:10:42;;;;;;;3.25;0.95;;;;;;;-145.14;100.00;70583.66;4996312;28;20472;-71
2023/08/16 09:13:10;;;;;;;5.40;1.17;;;;;;;-145.14;100.00;70583.66;4982248;28;20452;-71
2023/08/16 09:15:36;;;;;;;3.87;0.97;;;;;;;-145.14;100.00;70583.66;4979269;28;20813;-71
2023/08/16 09:18:11;;;;;;;2.50;1.00;;;;;;;-145.14;100.00;70583.66;4979743;28;20447;-71
2023/08/16 09:20:37;;;;;;;2.70;0.90;;;;;;;-145.14;100.00;70583.66;4994750;28;20404;-71
2023/08/16 09:23:03;;;;;;;4.67;1.50;;;;;;;-145.14;100.00;70583.66;4980804;28;20495;-71
2023/08/16 09:25:29;;;;;;;3.57;0.90;;;;;;;-145.14;100.00;70583.66;4979631;28;20481;-72
2023/08/16 09:27:55;;;;;;;4.20;0.90;;;;;;;-145.14;100.00;70583.66;4977566;28;20716;-71
2023/08/16 09:30:23;;;;;;;2.40;0.80;;;;;;;-145.14;100.00;70583.66;4981237;28;20483;-71
2023/08/16 09:32:48;;;;;;;2.27;0.90;;;;;;;-145.14;100.00;70583.66;4979603;28;20198;-71
2023/08/16 09:35:16;;;;;;;2.43;0.80;;;;;;;-145.14;100.00;70583.66;4981748;28;20465;-71
2023/08/16 09:37:42;;;;;;;2.27;0.83;;;;;;;-145.14;100.00;70583.66;4976725;28;20636;-72
2023/08/16 09:40:10;;;;;;;2.80;0.90;;;;;;;-145.14;100.00;70583.66;4980182;28;20433;-72
2023/08/16 09:42:36;;;;;;;2.50;0.90;;;;;;;-145.14;100.00;70583.66;4979320;28;20460;-72
2023/08/16 09:45:03;;;;;;;2.77;0.90;;;;;;;-145.14;100.00;70583.66;4981509;28;20436;-71
2023/08/16 09:47:30;;;;;;;2.33;0.73;;;;;;;-145.14;100.00;70583.66;4993561;28;20181;-72
2023/08/16 09:49:56;;;;;;;1.97;0.80;;;;;;;-145.14;100.00;70583.66;4980029;28;20465;-72
2023/08/16 09:52:22;;;;;;;2.40;0.90;;;;;;;-145.14;100.00;70583.66;4977283;28;20492;-71
2023/08/16 09:54:50;;;;;;;2.63;0.93;;;;;;;-145.14;100.00;70583.66;4976111;28;20536;-71
2023/08/16 09:57:16;;;;;;;2.80;0.80;;;;;;;-145.14;100.00;70583.66;4975567;28;20194;-71
2023/08/16 09:59:42;;;;;;;3.47;0.90;;;;;;;-145.14;100.00;70583.66;4980600;28;20817;-71
2023/08/16 10:02:12;;;;;;;3.30;1.13;;;;;;;-145.14;100.00;70583.66;4976816;28;20472;-71
2023/08/16 10:04:39;;;;;;;2.10;0.90;;;;;;;-145.14;100.00;70583.66;4978615;28;20444;-71
2023/08/16 10:07:06;;;;;;;2.30;0.77;;;;;;;-145.14;100.00;70583.66;4979012;28;20508;-71
2023/08/16 10:09:33;;;;;;;2.10;0.80;;;;;;;-145.14;100.00;70583.66;4981126;28;20475;-72
2023/08/16 10:12:04;;;;;;;2.73;0.83;;;;;;;-145.14;100.00;70583.66;4982809;28;20493;-72
2023/08/16 10:14:30;;;;;;;2.47;0.90;;;;;;;-145.14;100.00;70583.66;4977667;28;20506;-71
2023/08/16 10:17:01;;;;;;;2.80;0.90;;;;;;;-145.14;100.00;70583.66;4981107;28;20468;-72
2023/08/16 10:19:32;;;;;;;2.93;0.93;;;;;;;-145.14;100.00;70583.66;4978936;28;20508;-71
2023/08/16 10:21:59;;;;;;;8.57;1.60;;;;;;;-145.14;100.00;70583.66;4982930;28;20480;-71
2023/08/16 10:24:27;;;;;;;3.20;0.90;;;;;;;-145.14;100.00;70583.66;4980443;28;20433;-71
2023/08/16 10:26:56;;;;;;;2.00;0.83;;;;;;;-145.14;100.00;70583.66;4978749;28;21000;-71
2023/08/16 10:29:23;;;;;;;2.13;0.90;;;;;;;-145.14;100.00;70583.66;4980480;28;20448;-71
2023/08/16 10:31:51;;;;;;;2.93;0.90;;;;;;;-145.14;100.00;70583.66;4975211;28;20560;-71
2023/08/16 10:34:21;;;;;;;1.77;0.70;;;;;;;-145.14;100.00;70583.66;4979524;28;20464;-71
2023/08/16 10:36:47;;;;;;;3.17;0.80;;;;;;;-145.14;100.00;70583.66;4980349;28;20456;-71
2023/08/16 10:39:23;;;;;;;2.60;0.80;;;;;;;-145.14;100.00;70583.66;4977026;28;20442;-72
2023/08/16 10:41:50;;;;;;;2.33;0.90;;;;;;;-145.14;100.00;70583.66;4980931;28;20467;-71
2023/08/16 10:44:23;;;;;;;2.23;1.00;;;;;;;-145.14;100.00;70583.66;4978249;28;20472;-71
2023/08/16 10:46:50;;;;;;;2.07;0.90;;;;;;;-145.14;100.00;70583.66;4980589;28;20445;-71
2023/08/16 10:49:16;;;;;;;3.50;1.37;;;;;;;-145.14;100.00;70583.66;4976131;28;20818;-72
2023/08/16 10:51:45;;;;;;;2.37;1.20;;;;;;;-145.14;100.00;70583.66;4974565;28;20559;-71
2023/08/16 10:54:11;;;;;;;1.50;0.70;;;;;;;-145.14;100.00;70583.66;4981522;28;20453;-71
2023/08/16 10:56:44;;;;;;;2.00;0.70;;;;;;;-145.14;100.00;70583.66;4982318;28;20535;-71
2023/08/16 10:59:11;;;;;;;1.90;0.80;;;;;;;-145.14;100.00;70583.66;4981321;28;20582;-71
2023/08/16 11:01:48;;;;;;;2.50;0.80;;;;;;;-145.14;100.00;70583.66;4982001;28;20551;-71
2023/08/16 11:04:13;;;;;;;2.93;0.80;;;;;;;-145.14;100.00;70583.66;4983784;28;20531;-71
2023/08/16 11:06:40;;;;;;;2.57;0.80;;;;;;;-145.14;100.00;70583.66;4982695;28;20535;-71